Portada
METAR-TAF:

METAR-TAF

Aeropuertos :

Aeropuerto de Oporto-Francisco Sá Carneiro

Oporto, Portugal

latitud: 41-14N, longitud: 008-41W, altitud: 69 m

Observación

El informe se hizo hace 44 minutos, a las 11:00 UTC
Viento 6 kt del norte-noroeste, variando entre oeste y noreste
Temperatura 20°C
Humedad 49%
Presión 1018 hPa
Visibilidad 10 km o más
sin nubes por debajo de 1500 m y sin presencia de cumulonimbus.

METAR: LPPR 261100Z 34006KT 280V050 CAVOK 20/09 Q1018

Hora: 12:44 (11:44 UTC)

Pronóstico

El informe se hizo hace 44 minutos, a las 11:00 UTC
Pronóstico válido del 26 a las 12 UTC al 27 a las 12 UTC
Viento 13 kt del norte-noroeste
Visibilidad 10 km o más
sin nubes por debajo de 1500 m y sin presencia de cumulonimbus.
Evolucionando progresivamente
del 26 a las 18 UTC al 26 a las 21 UTC
Viento 7 kt del norte

TAF: LPPR 261100Z 2612/2712 33013KT CAVOK BECMG 2618/2621 01007KT

Observaciones y pronósticos meteorológicos de más de 4000 aeropuertos (mensajes METAR y TAF).

Los puntos amarillos y rojos representan las estaciones disponibles.

Ponga el ratón en el punto deseado para ver el nombre de la estación.

Haga clic para ver las observaciones y los pronósticos meteorológicos.

Para cambiar el mapa : haga clic en los botones verdes con una cruz de color negro para hacer un zoom, en el botón verde con un guión para alejar o en las flechas verdes para mapas adyacentes.


METAR-TAF: